sensor_id;sensor_type;location;lat;lon;timestamp;P1;durP1;ratioP1;P2;durP2;ratioP2
18265;SDS011;9259;48.194;16.322;2023-06-24T00:02:32;0.40;;;0.30;;
18265;SDS011;9259;48.194;16.322;2023-06-24T00:05:03;1.17;;;0.77;;
18265;SDS011;9259;48.194;16.322;2023-06-24T00:07:32;1.10;;;0.50;;
18265;SDS011;9259;48.194;16.322;2023-06-24T00:10:01;1.35;;;0.47;;
18265;SDS011;9259;48.194;16.322;2023-06-24T00:12:30;3.42;;;0.90;;
18265;SDS011;9259;48.194;16.322;2023-06-24T00:14:58;0.90;;;0.60;;
18265;SDS011;9259;48.194;16.322;2023-06-24T00:17:26;1.05;;;0.85;;
18265;SDS011;9259;48.194;16.322;2023-06-24T00:19:54;1.00;;;0.50;;
18265;SDS011;9259;48.194;16.322;2023-06-24T00:22:23;0.93;;;0.50;;
18265;SDS011;9259;48.194;16.322;2023-06-24T00:24:51;0.50;;;0.50;;
18265;SDS011;9259;48.194;16.322;2023-06-24T00:27:22;1.05;;;0.52;;
18265;SDS011;9259;48.194;16.322;2023-06-24T00:29:49;0.68;;;0.60;;
18265;SDS011;9259;48.194;16.322;2023-06-24T00:32:17;0.65;;;0.60;;
18265;SDS011;9259;48.194;16.322;2023-06-24T00:34:45;1.08;;;0.70;;
18265;SDS011;9259;48.194;16.322;2023-06-24T00:37:13;0.45;;;0.45;;
18265;SDS011;9259;48.194;16.322;2023-06-24T00:39:42;1.55;;;0.80;;
18265;SDS011;9259;48.194;16.322;2023-06-24T00:42:09;4.55;;;0.68;;
18265;SDS011;9259;48.194;16.322;2023-06-24T00:44:37;4.20;;;0.60;;
18265;SDS011;9259;48.194;16.322;2023-06-24T00:47:05;1.00;;;0.50;;
18265;SDS011;9259;48.194;16.322;2023-06-24T00:49:34;2.00;;;0.80;;
18265;SDS011;9259;48.194;16.322;2023-06-24T00:52:02;0.55;;;0.38;;
18265;SDS011;9259;48.194;16.322;2023-06-24T00:54:30;3.17;;;0.70;;
18265;SDS011;9259;48.194;16.322;2023-06-24T00:56:59;1.02;;;0.68;;
18265;SDS011;9259;48.194;16.322;2023-06-24T00:59:26;1.30;;;0.80;;
18265;SDS011;9259;48.194;16.322;2023-06-24T01:01:55;2.33;;;1.00;;
18265;SDS011;9259;48.194;16.322;2023-06-24T01:04:23;1.75;;;0.80;;
18265;SDS011;9259;48.194;16.322;2023-06-24T01:06:51;1.45;;;0.65;;
18265;SDS011;9259;48.194;16.322;2023-06-24T01:09:19;1.92;;;0.90;;
18265;SDS011;9259;48.194;16.322;2023-06-24T01:11:48;1.13;;;0.65;;
18265;SDS011;9259;48.194;16.322;2023-06-24T01:14:17;5.53;;;0.90;;
18265;SDS011;9259;48.194;16.322;2023-06-24T01:16:50;1.45;;;0.68;;
18265;SDS011;9259;48.194;16.322;2023-06-24T01:19:29;2.40;;;0.80;;
18265;SDS011;9259;48.194;16.322;2023-06-24T01:22:04;1.05;;;0.70;;
18265;SDS011;9259;48.194;16.322;2023-06-24T01:24:41;1.63;;;0.70;;
18265;SDS011;9259;48.194;16.322;2023-06-24T01:27:28;3.50;;;0.95;;
18265;SDS011;9259;48.194;16.322;2023-06-24T01:30:05;1.55;;;1.13;;
18265;SDS011;9259;48.194;16.322;2023-06-24T01:32:41;2.15;;;0.95;;
18265;SDS011;9259;48.194;16.322;2023-06-24T01:35:11;1.70;;;0.88;;
18265;SDS011;9259;48.194;16.322;2023-06-24T01:37:41;1.40;;;0.90;;
18265;SDS011;9259;48.194;16.322;2023-06-24T01:40:10;1.88;;;0.90;;
18265;SDS011;9259;48.194;16.322;2023-06-24T01:42:39;2.83;;;1.00;;
18265;SDS011;9259;48.194;16.322;2023-06-24T01:45:08;1.63;;;0.90;;
18265;SDS011;9259;48.194;16.322;2023-06-24T01:47:36;2.33;;;1.10;;
18265;SDS011;9259;48.194;16.322;2023-06-24T01:50:06;1.77;;;1.38;;
18265;SDS011;9259;48.194;16.322;2023-06-24T01:52:37;4.35;;;1.25;;
18265;SDS011;9259;48.194;16.322;2023-06-24T01:55:06;3.08;;;1.15;;
18265;SDS011;9259;48.194;16.322;2023-06-24T01:57:34;1.92;;;1.10;;
18265;SDS011;9259;48.194;16.322;2023-06-24T02:00:04;1.67;;;1.13;;
18265;SDS011;9259;48.194;16.322;2023-06-24T02:02:33;1.48;;;0.90;;
18265;SDS011;9259;48.194;16.322;2023-06-24T02:05:01;1.50;;;1.00;;
18265;SDS011;9259;48.194;16.322;2023-06-24T02:07:31;1.45;;;1.00;;
18265;SDS011;9259;48.194;16.322;2023-06-24T02:09:59;3.05;;;1.02;;
18265;SDS011;9259;48.194;16.322;2023-06-24T02:12:28;1.83;;;1.05;;
18265;SDS011;9259;48.194;16.322;2023-06-24T02:14:57;3.03;;;0.95;;
18265;SDS011;9259;48.194;16.322;2023-06-24T02:17:26;1.42;;;0.80;;
18265;SDS011;9259;48.194;16.322;2023-06-24T02:19:55;1.92;;;0.82;;
18265;SDS011;9259;48.194;16.322;2023-06-24T02:22:23;2.50;;;0.95;;
18265;SDS011;9259;48.194;16.322;2023-06-24T02:24:55;3.05;;;0.88;;
18265;SDS011;9259;48.194;16.322;2023-06-24T02:27:23;1.50;;;0.93;;
18265;SDS011;9259;48.194;16.322;2023-06-24T02:29:54;2.38;;;1.15;;
18265;SDS011;9259;48.194;16.322;2023-06-24T02:32:22;1.92;;;0.95;;
18265;SDS011;9259;48.194;16.322;2023-06-24T02:34:52;1.98;;;1.00;;
18265;SDS011;9259;48.194;16.322;2023-06-24T02:37:19;1.85;;;1.20;;
18265;SDS011;9259;48.194;16.322;2023-06-24T02:39:47;2.08;;;0.93;;
18265;SDS011;9259;48.194;16.322;2023-06-24T02:42:16;3.47;;;1.10;;
18265;SDS011;9259;48.194;16.322;2023-06-24T02:44:44;2.20;;;1.05;;
18265;SDS011;9259;48.194;16.322;2023-06-24T02:47:13;0.85;;;0.70;;
18265;SDS011;9259;48.194;16.322;2023-06-24T02:49:42;1.75;;;0.90;;
18265;SDS011;9259;48.194;16.322;2023-06-24T02:52:11;1.77;;;1.08;;
18265;SDS011;9259;48.194;16.322;2023-06-24T02:54:39;1.15;;;0.90;;
18265;SDS011;9259;48.194;16.322;2023-06-24T02:57:07;1.58;;;0.90;;
18265;SDS011;9259;48.194;16.322;2023-06-24T02:59:37;2.20;;;1.00;;
18265;SDS011;9259;48.194;16.322;2023-06-24T03:02:04;5.13;;;1.30;;
18265;SDS011;9259;48.194;16.322;2023-06-24T03:04:32;2.00;;;1.17;;
18265;SDS011;9259;48.194;16.322;2023-06-24T03:07:00;1.55;;;1.00;;
18265;SDS011;9259;48.194;16.322;2023-06-24T03:09:31;1.50;;;0.95;;
18265;SDS011;9259;48.194;16.322;2023-06-24T03:11:59;2.25;;;1.20;;
18265;SDS011;9259;48.194;16.322;2023-06-24T03:14:26;1.30;;;0.93;;
18265;SDS011;9259;48.194;16.322;2023-06-24T03:16:55;1.20;;;0.80;;
18265;SDS011;9259;48.194;16.322;2023-06-24T03:19:23;1.50;;;0.70;;
18265;SDS011;9259;48.194;16.322;2023-06-24T03:21:51;2.95;;;1.30;;
18265;SDS011;9259;48.194;16.322;2023-06-24T03:24:19;1.05;;;0.80;;
18265;SDS011;9259;48.194;16.322;2023-06-24T03:26:46;2.67;;;1.40;;
18265;SDS011;9259;48.194;16.322;2023-06-24T03:29:21;1.48;;;0.90;;
18265;SDS011;9259;48.194;16.322;2023-06-24T03:31:49;1.67;;;0.93;;
18265;SDS011;9259;48.194;16.322;2023-06-24T03:34:18;1.65;;;1.00;;
18265;SDS011;9259;48.194;16.322;2023-06-24T03:36:45;2.47;;;1.40;;
18265;SDS011;9259;48.194;16.322;2023-06-24T03:39:13;1.92;;;1.20;;
18265;SDS011;9259;48.194;16.322;2023-06-24T03:41:40;1.85;;;1.10;;
18265;SDS011;9259;48.194;16.322;2023-06-24T03:44:08;1.20;;;0.90;;
18265;SDS011;9259;48.194;16.322;2023-06-24T03:46:35;1.92;;;0.98;;
18265;SDS011;9259;48.194;16.322;2023-06-24T03:49:03;0.95;;;0.63;;
18265;SDS011;9259;48.194;16.322;2023-06-24T03:51:33;1.00;;;0.60;;
18265;SDS011;9259;48.194;16.322;2023-06-24T03:54:00;0.82;;;0.60;;
18265;SDS011;9259;48.194;16.322;2023-06-24T03:56:28;1.23;;;0.80;;
18265;SDS011;9259;48.194;16.322;2023-06-24T03:58:56;1.10;;;0.60;;
18265;SDS011;9259;48.194;16.322;2023-06-24T04:01:23;0.50;;;0.50;;
18265;SDS011;9259;48.194;16.322;2023-06-24T04:03:51;0.68;;;0.57;;
18265;SDS011;9259;48.194;16.322;2023-06-24T04:06:21;1.00;;;0.50;;
18265;SDS011;9259;48.194;16.322;2023-06-24T04:08:50;0.82;;;0.52;;
18265;SDS011;9259;48.194;16.322;2023-06-24T04:11:17;0.70;;;0.60;;
18265;SDS011;9259;48.194;16.322;2023-06-24T04:13:45;1.65;;;0.65;;
18265;SDS011;9259;48.194;16.322;2023-06-24T04:16:14;0.35;;;0.35;;
18265;SDS011;9259;48.194;16.322;2023-06-24T04:18:42;0.68;;;0.50;;
18265;SDS011;9259;48.194;16.322;2023-06-24T04:21:09;0.88;;;0.43;;
18265;SDS011;9259;48.194;16.322;2023-06-24T04:23:37;0.80;;;0.50;;
18265;SDS011;9259;48.194;16.322;2023-06-24T04:26:06;0.95;;;0.60;;
18265;SDS011;9259;48.194;16.322;2023-06-24T04:28:33;1.27;;;0.50;;
18265;SDS011;9259;48.194;16.322;2023-06-24T04:31:01;0.30;;;0.30;;
18265;SDS011;9259;48.194;16.322;2023-06-24T04:33:29;0.70;;;0.38;;
18265;SDS011;9259;48.194;16.322;2023-06-24T04:35:56;0.40;;;0.30;;
18265;SDS011;9259;48.194;16.322;2023-06-24T04:38:25;3.17;;;0.47;;
18265;SDS011;9259;48.194;16.322;2023-06-24T04:40:52;0.65;;;0.50;;
18265;SDS011;9259;48.194;16.322;2023-06-24T04:43:21;0.60;;;0.50;;
18265;SDS011;9259;48.194;16.322;2023-06-24T04:45:49;1.13;;;0.70;;
18265;SDS011;9259;48.194;16.322;2023-06-24T04:48:17;0.80;;;0.68;;
18265;SDS011;9259;48.194;16.322;2023-06-24T04:50:44;0.47;;;0.47;;
18265;SDS011;9259;48.194;16.322;2023-06-24T04:53:12;0.43;;;0.30;;
18265;SDS011;9259;48.194;16.322;2023-06-24T04:55:39;0.63;;;0.45;;
18265;SDS011;9259;48.194;16.322;2023-06-24T04:58:07;0.63;;;0.40;;
18265;SDS011;9259;48.194;16.322;2023-06-24T05:00:36;0.32;;;0.30;;
18265;SDS011;9259;48.194;16.322;2023-06-24T05:03:04;0.80;;;0.47;;
18265;SDS011;9259;48.194;16.322;2023-06-24T05:05:32;0.55;;;0.35;;
18265;SDS011;9259;48.194;16.322;2023-06-24T05:07:59;0.77;;;0.40;;
18265;SDS011;9259;48.194;16.322;2023-06-24T05:10:27;0.30;;;0.20;;
18265;SDS011;9259;48.194;16.322;2023-06-24T05:12:54;0.32;;;0.30;;
18265;SDS011;9259;48.194;16.322;2023-06-24T05:15:23;0.30;;;0.30;;
18265;SDS011;9259;48.194;16.322;2023-06-24T05:17:52;0.30;;;0.20;;
18265;SDS011;9259;48.194;16.322;2023-06-24T05:20:20;0.60;;;0.30;;
18265;SDS011;9259;48.194;16.322;2023-06-24T05:22:48;0.52;;;0.30;;
18265;SDS011;9259;48.194;16.322;2023-06-24T05:25:15;1.60;;;0.43;;
18265;SDS011;9259;48.194;16.322;2023-06-24T05:27:43;0.38;;;0.30;;
18265;SDS011;9259;48.194;16.322;2023-06-24T05:30:11;0.65;;;0.40;;
18265;SDS011;9259;48.194;16.322;2023-06-24T05:32:40;0.40;;;0.30;;
18265;SDS011;9259;48.194;16.322;2023-06-24T05:35:09;0.32;;;0.30;;
18265;SDS011;9259;48.194;16.322;2023-06-24T05:37:36;0.60;;;0.40;;
18265;SDS011;9259;48.194;16.322;2023-06-24T05:40:04;0.22;;;0.22;;
18265;SDS011;9259;48.194;16.322;2023-06-24T05:42:33;0.38;;;0.30;;
18265;SDS011;9259;48.194;16.322;2023-06-24T05:45:00;0.30;;;0.25;;
18265;SDS011;9259;48.194;16.322;2023-06-24T05:47:28;0.28;;;0.20;;
18265;SDS011;9259;48.194;16.322;2023-06-24T05:49:55;1.20;;;0.40;;
18265;SDS011;9259;48.194;16.322;2023-06-24T05:52:24;0.17;;;0.17;;
18265;SDS011;9259;48.194;16.322;2023-06-24T05:54:54;0.50;;;0.30;;
18265;SDS011;9259;48.194;16.322;2023-06-24T05:57:22;0.65;;;0.40;;
18265;SDS011;9259;48.194;16.322;2023-06-24T05:59:49;0.45;;;0.28;;
18265;SDS011;9259;48.194;16.322;2023-06-24T06:02:17;0.30;;;0.30;;
18265;SDS011;9259;48.194;16.322;2023-06-24T06:04:44;0.45;;;0.40;;
18265;SDS011;9259;48.194;16.322;2023-06-24T06:07:12;0.43;;;0.40;;
18265;SDS011;9259;48.194;16.322;2023-06-24T06:09:41;0.30;;;0.30;;
18265;SDS011;9259;48.194;16.322;2023-06-24T06:12:09;0.52;;;0.30;;
18265;SDS011;9259;48.194;16.322;2023-06-24T06:14:37;0.45;;;0.30;;
18265;SDS011;9259;48.194;16.322;2023-06-24T06:17:05;0.43;;;0.30;;
18265;SDS011;9259;48.194;16.322;2023-06-24T06:19:32;0.10;;;0.10;;
18265;SDS011;9259;48.194;16.322;2023-06-24T06:22:01;0.45;;;0.20;;
18265;SDS011;9259;48.194;16.322;2023-06-24T06:24:29;0.30;;;0.30;;
18265;SDS011;9259;48.194;16.322;2023-06-24T06:26:58;0.28;;;0.28;;
18265;SDS011;9259;48.194;16.322;2023-06-24T06:29:26;0.35;;;0.25;;
18265;SDS011;9259;48.194;16.322;2023-06-24T06:31:53;0.47;;;0.22;;
18265;SDS011;9259;48.194;16.322;2023-06-24T06:34:22;1.50;;;0.50;;
18265;SDS011;9259;48.194;16.322;2023-06-24T06:36:50;0.30;;;0.30;;
18265;SDS011;9259;48.194;16.322;2023-06-24T06:39:17;0.38;;;0.30;;
18265;SDS011;9259;48.194;16.322;2023-06-24T06:41:45;0.70;;;0.30;;
18265;SDS011;9259;48.194;16.322;2023-06-24T06:44:14;0.60;;;0.30;;
18265;SDS011;9259;48.194;16.322;2023-06-24T06:46:42;0.30;;;0.30;;
18265;SDS011;9259;48.194;16.322;2023-06-24T06:49:09;0.50;;;0.40;;
18265;SDS011;9259;48.194;16.322;2023-06-24T06:51:37;0.65;;;0.40;;
18265;SDS011;9259;48.194;16.322;2023-06-24T06:54:04;0.85;;;0.40;;
18265;SDS011;9259;48.194;16.322;2023-06-24T06:56:32;0.40;;;0.30;;
18265;SDS011;9259;48.194;16.322;2023-06-24T06:59:00;0.80;;;0.40;;
18265;SDS011;9259;48.194;16.322;2023-06-24T07:01:29;0.93;;;0.30;;
18265;SDS011;9259;48.194;16.322;2023-06-24T07:03:56;0.60;;;0.40;;
18265;SDS011;9259;48.194;16.322;2023-06-24T07:06:24;0.60;;;0.45;;
18265;SDS011;9259;48.194;16.322;2023-06-24T07:08:52;0.93;;;0.50;;
18265;SDS011;9259;48.194;16.322;2023-06-24T07:11:20;0.63;;;0.50;;
18265;SDS011;9259;48.194;16.322;2023-06-24T07:13:48;0.63;;;0.43;;
18265;SDS011;9259;48.194;16.322;2023-06-24T07:16:16;1.33;;;0.43;;
18265;SDS011;9259;48.194;16.322;2023-06-24T07:18:45;3.17;;;0.60;;
18265;SDS011;9259;48.194;16.322;2023-06-24T07:21:13;1.23;;;0.68;;
18265;SDS011;9259;48.194;16.322;2023-06-24T07:23:40;0.75;;;0.52;;
18265;SDS011;9259;48.194;16.322;2023-06-24T07:26:11;0.90;;;0.43;;
18265;SDS011;9259;48.194;16.322;2023-06-24T07:28:38;0.50;;;0.40;;
18265;SDS011;9259;48.194;16.322;2023-06-24T07:31:06;0.70;;;0.55;;
18265;SDS011;9259;48.194;16.322;2023-06-24T07:33:34;1.35;;;0.60;;
18265;SDS011;9259;48.194;16.322;2023-06-24T07:36:03;2.45;;;0.88;;
18265;SDS011;9259;48.194;16.322;2023-06-24T07:38:31;1.35;;;0.55;;
18265;SDS011;9259;48.194;16.322;2023-06-24T07:40:58;1.60;;;0.80;;
18265;SDS011;9259;48.194;16.322;2023-06-24T07:43:26;1.30;;;0.60;;
18265;SDS011;9259;48.194;16.322;2023-06-24T07:45:53;3.88;;;1.15;;
18265;SDS011;9259;48.194;16.322;2023-06-24T07:48:21;1.38;;;0.70;;
18265;SDS011;9259;48.194;16.322;2023-06-24T07:50:49;1.20;;;0.82;;
18265;SDS011;9259;48.194;16.322;2023-06-24T07:53:18;1.48;;;0.77;;
18265;SDS011;9259;48.194;16.322;2023-06-24T07:55:45;1.38;;;1.00;;
18265;SDS011;9259;48.194;16.322;2023-06-24T07:58:13;0.90;;;0.77;;
18265;SDS011;9259;48.194;16.322;2023-06-24T08:00:44;1.60;;;1.05;;
18265;SDS011;9259;48.194;16.322;2023-06-24T08:03:12;1.73;;;1.20;;
18265;SDS011;9259;48.194;16.322;2023-06-24T08:05:40;1.83;;;0.90;;
18265;SDS011;9259;48.194;16.322;2023-06-24T08:08:07;1.92;;;1.08;;
18265;SDS011;9259;48.194;16.322;2023-06-24T08:10:37;2.10;;;1.05;;
18265;SDS011;9259;48.194;16.322;2023-06-24T08:13:04;3.30;;;1.45;;
18265;SDS011;9259;48.194;16.322;2023-06-24T08:15:32;2.63;;;0.98;;
18265;SDS011;9259;48.194;16.322;2023-06-24T08:17:59;2.38;;;1.33;;
18265;SDS011;9259;48.194;16.322;2023-06-24T08:20:27;2.22;;;1.00;;
18265;SDS011;9259;48.194;16.322;2023-06-24T08:22:55;1.33;;;0.90;;
18265;SDS011;9259;48.194;16.322;2023-06-24T08:25:22;1.38;;;1.00;;
18265;SDS011;9259;48.194;16.322;2023-06-24T08:27:52;1.60;;;1.10;;
18265;SDS011;9259;48.194;16.322;2023-06-24T08:30:19;2.35;;;1.10;;
18265;SDS011;9259;48.194;16.322;2023-06-24T08:32:47;2.35;;;1.20;;
18265;SDS011;9259;48.194;16.322;2023-06-24T08:35:15;2.13;;;1.20;;
18265;SDS011;9259;48.194;16.322;2023-06-24T08:37:42;3.05;;;1.15;;
18265;SDS011;9259;48.194;16.322;2023-06-24T08:40:10;2.92;;;1.40;;
18265;SDS011;9259;48.194;16.322;2023-06-24T08:42:38;4.25;;;1.63;;
18265;SDS011;9259;48.194;16.322;2023-06-24T08:45:08;2.42;;;1.08;;
18265;SDS011;9259;48.194;16.322;2023-06-24T08:47:36;2.55;;;1.30;;
18265;SDS011;9259;48.194;16.322;2023-06-24T08:50:04;2.35;;;1.33;;
18265;SDS011;9259;48.194;16.322;2023-06-24T08:52:32;3.03;;;1.70;;
18265;SDS011;9259;48.194;16.322;2023-06-24T08:55:02;3.55;;;1.63;;
18265;SDS011;9259;48.194;16.322;2023-06-24T08:57:31;2.47;;;1.05;;
18265;SDS011;9259;48.194;16.322;2023-06-24T08:59:59;3.40;;;1.50;;
18265;SDS011;9259;48.194;16.322;2023-06-24T09:02:29;2.45;;;1.38;;
18265;SDS011;9259;48.194;16.322;2023-06-24T09:04:58;2.17;;;1.20;;
18265;SDS011;9259;48.194;16.322;2023-06-24T09:07:26;2.55;;;1.23;;
18265;SDS011;9259;48.194;16.322;2023-06-24T09:09:54;2.80;;;1.35;;
18265;SDS011;9259;48.194;16.322;2023-06-24T09:12:23;2.72;;;1.40;;
18265;SDS011;9259;48.194;16.322;2023-06-24T09:14:51;3.15;;;1.35;;
18265;SDS011;9259;48.194;16.322;2023-06-24T09:17:19;1.55;;;1.10;;
18265;SDS011;9259;48.194;16.322;2023-06-24T09:19:49;2.35;;;1.33;;
18265;SDS011;9259;48.194;16.322;2023-06-24T09:22:24;2.00;;;1.20;;
18265;SDS011;9259;48.194;16.322;2023-06-24T09:24:56;2.92;;;1.45;;
18265;SDS011;9259;48.194;16.322;2023-06-24T09:27:24;2.83;;;1.35;;
18265;SDS011;9259;48.194;16.322;2023-06-24T09:29:51;2.33;;;1.38;;
18265;SDS011;9259;48.194;16.322;2023-06-24T09:32:19;3.25;;;1.85;;
18265;SDS011;9259;48.194;16.322;2023-06-24T09:34:46;2.08;;;1.20;;
18265;SDS011;9259;48.194;16.322;2023-06-24T09:37:22;4.47;;;1.15;;
18265;SDS011;9259;48.194;16.322;2023-06-24T09:39:50;2.83;;;1.50;;
18265;SDS011;9259;48.194;16.322;2023-06-24T09:42:20;2.10;;;1.27;;
18265;SDS011;9259;48.194;16.322;2023-06-24T09:44:52;2.58;;;1.17;;
18265;SDS011;9259;48.194;16.322;2023-06-24T09:47:20;2.47;;;1.33;;
18265;SDS011;9259;48.194;16.322;2023-06-24T09:49:50;3.65;;;1.45;;
18265;SDS011;9259;48.194;16.322;2023-06-24T09:52:18;2.25;;;1.30;;
18265;SDS011;9259;48.194;16.322;2023-06-24T09:54:48;2.85;;;1.55;;
18265;SDS011;9259;48.194;16.322;2023-06-24T09:57:20;3.22;;;1.55;;
18265;SDS011;9259;48.194;16.322;2023-06-24T09:59:50;2.90;;;1.92;;
18265;SDS011;9259;48.194;16.322;2023-06-24T10:02:18;3.05;;;1.60;;
18265;SDS011;9259;48.194;16.322;2023-06-24T10:04:46;3.03;;;1.58;;
18265;SDS011;9259;48.194;16.322;2023-06-24T10:07:13;2.28;;;1.35;;
18265;SDS011;9259;48.194;16.322;2023-06-24T10:09:41;1.85;;;1.42;;
18265;SDS011;9259;48.194;16.322;2023-06-24T10:12:11;3.45;;;1.92;;
18265;SDS011;9259;48.194;16.322;2023-06-24T10:14:38;6.57;;;2.00;;
18265;SDS011;9259;48.194;16.322;2023-06-24T10:17:06;4.45;;;2.20;;
18265;SDS011;9259;48.194;16.322;2023-06-24T10:19:37;3.25;;;1.77;;
18265;SDS011;9259;48.194;16.322;2023-06-24T10:22:07;5.28;;;2.58;;
18265;SDS011;9259;48.194;16.322;2023-06-24T10:24:36;5.85;;;2.65;;
18265;SDS011;9259;48.194;16.322;2023-06-24T10:27:05;7.20;;;2.30;;
18265;SDS011;9259;48.194;16.322;2023-06-24T10:29:34;6.10;;;2.50;;
18265;SDS011;9259;48.194;16.322;2023-06-24T10:32:03;5.50;;;2.42;;
18265;SDS011;9259;48.194;16.322;2023-06-24T10:34:32;4.68;;;2.28;;
18265;SDS011;9259;48.194;16.322;2023-06-24T10:37:01;5.13;;;2.80;;
18265;SDS011;9259;48.194;16.322;2023-06-24T10:39:35;7.28;;;3.10;;
18265;SDS011;9259;48.194;16.322;2023-06-24T10:44:51;5.93;;;2.90;;
18265;SDS011;9259;48.194;16.322;2023-06-24T10:47:19;5.65;;;3.05;;
18265;SDS011;9259;48.194;16.322;2023-06-24T10:49:47;6.03;;;3.17;;
18265;SDS011;9259;48.194;16.322;2023-06-24T10:52:14;6.80;;;3.60;;
18265;SDS011;9259;48.194;16.322;2023-06-24T10:54:45;4.95;;;3.10;;
18265;SDS011;9259;48.194;16.322;2023-06-24T10:57:13;5.03;;;3.08;;
18265;SDS011;9259;48.194;16.322;2023-06-24T10:59:41;6.57;;;2.88;;
18265;SDS011;9259;48.194;16.322;2023-06-24T11:02:12;7.25;;;3.63;;
18265;SDS011;9259;48.194;16.322;2023-06-24T11:04:43;6.38;;;3.10;;
18265;SDS011;9259;48.194;16.322;2023-06-24T11:07:11;5.55;;;2.88;;
18265;SDS011;9259;48.194;16.322;2023-06-24T11:09:40;5.75;;;2.88;;
18265;SDS011;9259;48.194;16.322;2023-06-24T11:12:11;6.35;;;3.30;;
18265;SDS011;9259;48.194;16.322;2023-06-24T11:14:39;6.00;;;2.97;;
18265;SDS011;9259;48.194;16.322;2023-06-24T11:17:07;6.20;;;3.30;;
18265;SDS011;9259;48.194;16.322;2023-06-24T11:19:36;7.13;;;3.50;;
18265;SDS011;9259;48.194;16.322;2023-06-24T11:22:05;7.85;;;3.78;;
18265;SDS011;9259;48.194;16.322;2023-06-24T11:24:33;6.22;;;3.20;;
18265;SDS011;9259;48.194;16.322;2023-06-24T11:27:01;6.90;;;3.97;;
18265;SDS011;9259;48.194;16.322;2023-06-24T11:29:29;7.10;;;3.65;;
18265;SDS011;9259;48.194;16.322;2023-06-24T11:31:56;6.63;;;3.42;;
18265;SDS011;9259;48.194;16.322;2023-06-24T11:34:25;6.15;;;3.38;;
18265;SDS011;9259;48.194;16.322;2023-06-24T11:36:54;6.90;;;3.65;;
18265;SDS011;9259;48.194;16.322;2023-06-24T11:39:25;6.07;;;3.50;;
18265;SDS011;9259;48.194;16.322;2023-06-24T11:41:53;6.95;;;3.35;;
18265;SDS011;9259;48.194;16.322;2023-06-24T11:44:21;7.72;;;4.03;;
18265;SDS011;9259;48.194;16.322;2023-06-24T11:46:48;6.57;;;3.25;;
18265;SDS011;9259;48.194;16.322;2023-06-24T11:49:18;9.45;;;4.38;;
18265;SDS011;9259;48.194;16.322;2023-06-24T11:51:47;8.18;;;3.97;;
18265;SDS011;9259;48.194;16.322;2023-06-24T11:54:16;16.50;;;4.15;;
18265;SDS011;9259;48.194;16.322;2023-06-24T11:56:49;8.20;;;4.10;;
18265;SDS011;9259;48.194;16.322;2023-06-24T11:59:18;7.53;;;3.97;;
18265;SDS011;9259;48.194;16.322;2023-06-24T12:01:52;7.80;;;3.30;;
18265;SDS011;9259;48.194;16.322;2023-06-24T12:04:20;7.82;;;3.40;;
18265;SDS011;9259;48.194;16.322;2023-06-24T12:06:47;5.05;;;3.10;;
18265;SDS011;9259;48.194;16.322;2023-06-24T12:09:16;5.95;;;3.00;;
18265;SDS011;9259;48.194;16.322;2023-06-24T12:11:44;6.63;;;3.65;;
18265;SDS011;9259;48.194;16.322;2023-06-24T12:14:12;7.28;;;3.92;;
18265;SDS011;9259;48.194;16.322;2023-06-24T12:16:39;6.90;;;3.30;;
18265;SDS011;9259;48.194;16.322;2023-06-24T12:19:07;6.32;;;4.00;;
18265;SDS011;9259;48.194;16.322;2023-06-24T12:21:37;5.72;;;3.13;;
18265;SDS011;9259;48.194;16.322;2023-06-24T12:24:05;8.18;;;3.67;;
18265;SDS011;9259;48.194;16.322;2023-06-24T12:26:35;8.18;;;3.42;;
18265;SDS011;9259;48.194;16.322;2023-06-24T12:29:03;8.80;;;4.13;;
18265;SDS011;9259;48.194;16.322;2023-06-24T12:31:31;8.90;;;4.75;;
18265;SDS011;9259;48.194;16.322;2023-06-24T12:33:59;6.38;;;3.85;;
18265;SDS011;9259;48.194;16.322;2023-06-24T12:36:26;7.43;;;3.92;;
18265;SDS011;9259;48.194;16.322;2023-06-24T12:38:54;8.98;;;4.40;;
18265;SDS011;9259;48.194;16.322;2023-06-24T12:41:21;9.00;;;4.63;;
18265;SDS011;9259;48.194;16.322;2023-06-24T12:43:50;9.27;;;3.90;;
18265;SDS011;9259;48.194;16.322;2023-06-24T12:46:18;7.57;;;4.13;;
18265;SDS011;9259;48.194;16.322;2023-06-24T12:48:46;7.38;;;3.80;;
18265;SDS011;9259;48.194;16.322;2023-06-24T12:51:13;7.78;;;4.28;;
18265;SDS011;9259;48.194;16.322;2023-06-24T12:53:41;6.75;;;3.70;;
18265;SDS011;9259;48.194;16.322;2023-06-24T12:56:09;7.95;;;3.78;;
18265;SDS011;9259;48.194;16.322;2023-06-24T12:58:36;7.40;;;3.85;;
18265;SDS011;9259;48.194;16.322;2023-06-24T13:01:05;8.00;;;3.80;;
18265;SDS011;9259;48.194;16.322;2023-06-24T13:03:33;7.72;;;3.53;;
18265;SDS011;9259;48.194;16.322;2023-06-24T13:06:00;7.30;;;3.63;;
18265;SDS011;9259;48.194;16.322;2023-06-24T13:08:28;7.95;;;4.10;;
18265;SDS011;9259;48.194;16.322;2023-06-24T13:10:56;7.18;;;4.03;;
18265;SDS011;9259;48.194;16.322;2023-06-24T13:13:23;6.85;;;3.85;;
18265;SDS011;9259;48.194;16.322;2023-06-24T13:15:51;11.25;;;4.68;;
18265;SDS011;9259;48.194;16.322;2023-06-24T13:18:20;8.13;;;4.15;;
18265;SDS011;9259;48.194;16.322;2023-06-24T13:20:48;7.07;;;4.05;;
18265;SDS011;9259;48.194;16.322;2023-06-24T13:23:15;8.43;;;4.30;;
18265;SDS011;9259;48.194;16.322;2023-06-24T13:25:43;7.93;;;4.30;;
18265;SDS011;9259;48.194;16.322;2023-06-24T13:28:11;7.35;;;3.70;;
18265;SDS011;9259;48.194;16.322;2023-06-24T13:30:38;9.57;;;3.95;;
18265;SDS011;9259;48.194;16.322;2023-06-24T13:33:07;7.60;;;4.15;;
18265;SDS011;9259;48.194;16.322;2023-06-24T13:35:36;9.00;;;4.30;;
18265;SDS011;9259;48.194;16.322;2023-06-24T13:38:04;7.55;;;4.03;;
18265;SDS011;9259;48.194;16.322;2023-06-24T13:40:33;7.13;;;3.85;;
18265;SDS011;9259;48.194;16.322;2023-06-24T13:43:01;9.25;;;4.35;;
18265;SDS011;9259;48.194;16.322;2023-06-24T13:45:28;6.03;;;3.20;;
18265;SDS011;9259;48.194;16.322;2023-06-24T13:47:56;7.53;;;3.92;;
18265;SDS011;9259;48.194;16.322;2023-06-24T13:50:23;6.65;;;3.28;;
18265;SDS011;9259;48.194;16.322;2023-06-24T13:52:52;6.65;;;3.90;;
18265;SDS011;9259;48.194;16.322;2023-06-24T13:55:20;6.10;;;3.38;;
18265;SDS011;9259;48.194;16.322;2023-06-24T13:57:48;6.57;;;3.20;;
18265;SDS011;9259;48.194;16.322;2023-06-24T14:00:23;7.25;;;3.90;;
18265;SDS011;9259;48.194;16.322;2023-06-24T14:02:51;7.93;;;4.13;;
18265;SDS011;9259;48.194;16.322;2023-06-24T14:05:20;8.55;;;3.70;;
18265;SDS011;9259;48.194;16.322;2023-06-24T14:07:47;10.07;;;4.70;;
18265;SDS011;9259;48.194;16.322;2023-06-24T14:10:16;6.63;;;4.07;;
18265;SDS011;9259;48.194;16.322;2023-06-24T14:12:44;7.82;;;4.10;;
18265;SDS011;9259;48.194;16.322;2023-06-24T14:15:12;8.85;;;4.05;;
18265;SDS011;9259;48.194;16.322;2023-06-24T14:17:39;6.53;;;3.50;;
18265;SDS011;9259;48.194;16.322;2023-06-24T14:20:07;7.80;;;4.00;;
18265;SDS011;9259;48.194;16.322;2023-06-24T14:22:35;12.25;;;4.07;;
18265;SDS011;9259;48.194;16.322;2023-06-24T14:25:03;6.75;;;3.90;;
18265;SDS011;9259;48.194;16.322;2023-06-24T14:27:32;7.45;;;3.83;;
18265;SDS011;9259;48.194;16.322;2023-06-24T14:30:00;6.60;;;3.63;;
18265;SDS011;9259;48.194;16.322;2023-06-24T14:32:27;6.45;;;3.70;;
18265;SDS011;9259;48.194;16.322;2023-06-24T14:34:55;7.53;;;3.92;;
18265;SDS011;9259;48.194;16.322;2023-06-24T14:37:23;4.90;;;3.10;;
18265;SDS011;9259;48.194;16.322;2023-06-24T14:39:50;6.93;;;3.85;;
18265;SDS011;9259;48.194;16.322;2023-06-24T14:42:18;5.40;;;3.13;;
18265;SDS011;9259;48.194;16.322;2023-06-24T14:44:47;5.95;;;3.47;;
18265;SDS011;9259;48.194;16.322;2023-06-24T14:47:14;6.60;;;3.53;;
18265;SDS011;9259;48.194;16.322;2023-06-24T14:49:42;7.75;;;3.78;;
18265;SDS011;9259;48.194;16.322;2023-06-24T14:52:09;7.18;;;3.78;;
18265;SDS011;9259;48.194;16.322;2023-06-24T14:54:37;7.32;;;4.20;;
18265;SDS011;9259;48.194;16.322;2023-06-24T14:57:05;5.60;;;3.30;;
18265;SDS011;9259;48.194;16.322;2023-06-24T14:59:32;6.82;;;3.53;;